sensor_id;sensor_type;location;lat;lon;timestamp;pressure;altitude;pressure_sealevel;temperature;humidity
6032;BME280;3044;43.232;27.972;2023-02-13T00:01:22;45231.88;;;-143.84;66.95
6032;BME280;3044;43.232;27.972;2023-02-13T00:03:50;45231.88;;;-143.84;66.76
6032;BME280;3044;43.232;27.972;2023-02-13T00:06:17;45229.97;;;-143.84;66.76
6032;BME280;3044;43.232;27.972;2023-02-13T00:08:44;45239.50;;;-143.84;67.04
6032;BME280;3044;43.232;27.972;2023-02-13T00:11:13;45209.03;;;-143.84;66.88
6032;BME280;3044;43.232;27.972;2023-02-13T00:13:40;45209.03;;;-143.84;66.98
6032;BME280;3044;43.232;27.972;2023-02-13T00:16:08;45231.88;;;-143.84;66.98
6032;BME280;3044;43.232;27.972;2023-02-13T00:18:36;45239.50;;;-143.84;66.79
6032;BME280;3044;43.232;27.972;2023-02-13T00:21:05;45226.16;;;-143.84;67.32
6032;BME280;3044;43.232;27.972;2023-02-13T00:23:34;45256.63;;;-143.84;67.01
6032;BME280;3044;43.232;27.972;2023-02-13T00:26:05;45239.50;;;-143.84;67.01
6032;BME280;3044;43.232;27.972;2023-02-13T00:28:34;45237.59;;;-143.84;67.13
6032;BME280;3044;43.232;27.972;2023-02-13T00:31:03;45218.53;;;-143.84;66.99
6032;BME280;3044;43.232;27.972;2023-02-13T00:33:30;45237.59;;;-143.84;67.55
6032;BME280;3044;43.232;27.972;2023-02-13T00:36:02;45218.53;;;-143.84;67.15
6032;BME280;3044;43.232;27.972;2023-02-13T00:38:30;45231.88;;;-143.84;67.27
6032;BME280;3044;43.232;27.972;2023-02-13T00:40:57;45228.06;;;-143.84;67.58
6032;BME280;3044;43.232;27.972;2023-02-13T00:43:24;45214.72;;;-143.84;67.85
6032;BME280;3044;43.232;27.972;2023-02-13T00:45:53;45224.25;;;-143.84;67.94
6032;BME280;3044;43.232;27.972;2023-02-13T00:48:20;45210.94;;;-143.84;68.02
6032;BME280;3044;43.232;27.972;2023-02-13T00:50:47;45247.09;;;-143.84;67.92
6032;BME280;3044;43.232;27.972;2023-02-13T00:53:16;45226.16;;;-143.84;67.85
6032;BME280;3044;43.232;27.972;2023-02-13T00:55:43;45228.06;;;-143.84;68.11
6032;BME280;3044;43.232;27.972;2023-02-13T00:58:10;45216.63;;;-143.84;67.92
6032;BME280;3044;43.232;27.972;2023-02-13T01:00:38;45228.06;;;-143.84;67.93
6032;BME280;3044;43.232;27.972;2023-02-13T01:03:08;45224.25;;;-143.84;67.89
6032;BME280;3044;43.232;27.972;2023-02-13T01:05:35;45241.41;;;-143.84;67.75
6032;BME280;3044;43.232;27.972;2023-02-13T01:08:02;45249.00;;;-143.84;67.84
6032;BME280;3044;43.232;27.972;2023-02-13T01:10:30;45273.78;;;-143.84;67.75
6032;BME280;3044;43.232;27.972;2023-02-13T01:12:57;45252.81;;;-143.84;67.73
6032;BME280;3044;43.232;27.972;2023-02-13T01:15:24;45233.78;;;-143.84;67.83
6032;BME280;3044;43.232;27.972;2023-02-13T01:17:52;45229.97;;;-143.84;67.82
6032;BME280;3044;43.232;27.972;2023-02-13T01:20:21;45243.31;;;-143.84;68.00
6032;BME280;3044;43.232;27.972;2023-02-13T01:22:48;45220.44;;;-143.84;68.07
6032;BME280;3044;43.232;27.972;2023-02-13T01:25:15;45249.00;;;-143.84;67.96
6032;BME280;3044;43.232;27.972;2023-02-13T01:27:42;45243.31;;;-143.84;68.29
6032;BME280;3044;43.232;27.972;2023-02-13T01:30:12;45243.31;;;-143.84;68.25
6032;BME280;3044;43.232;27.972;2023-02-13T01:32:41;45252.81;;;-143.84;68.18
6032;BME280;3044;43.232;27.972;2023-02-13T01:35:09;45231.88;;;-143.84;68.35
6032;BME280;3044;43.232;27.972;2023-02-13T01:37:38;45231.88;;;-143.84;68.11
6032;BME280;3044;43.232;27.972;2023-02-13T01:40:07;45264.25;;;-143.84;68.18
6032;BME280;3044;43.232;27.972;2023-02-13T01:42:35;45226.16;;;-143.84;68.35
6032;BME280;3044;43.232;27.972;2023-02-13T01:45:04;45237.59;;;-143.84;68.47
6032;BME280;3044;43.232;27.972;2023-02-13T01:47:37;45252.81;;;-143.84;68.43
6032;BME280;3044;43.232;27.972;2023-02-13T01:50:09;45233.78;;;-143.84;68.38
6032;BME280;3044;43.232;27.972;2023-02-13T01:52:40;45220.44;;;-143.84;68.38
6032;BME280;3044;43.232;27.972;2023-02-13T01:55:10;45245.19;;;-143.84;68.51
6032;BME280;3044;43.232;27.972;2023-02-13T01:57:38;45256.63;;;-143.84;68.82
6032;BME280;3044;43.232;27.972;2023-02-13T02:00:08;45239.50;;;-143.84;69.04
6032;BME280;3044;43.232;27.972;2023-02-13T02:02:38;45252.81;;;-143.84;68.98
6032;BME280;3044;43.232;27.972;2023-02-13T02:05:08;45243.31;;;-143.84;69.21
6032;BME280;3044;43.232;27.972;2023-02-13T02:07:38;45212.84;;;-143.84;69.20
6032;BME280;3044;43.232;27.972;2023-02-13T02:10:09;45245.19;;;-143.84;68.99
6032;BME280;3044;43.232;27.972;2023-02-13T02:12:42;45249.00;;;-143.84;68.90
6032;BME280;3044;43.232;27.972;2023-02-13T02:15:11;45237.59;;;-143.84;68.83
6032;BME280;3044;43.232;27.972;2023-02-13T02:17:38;45243.31;;;-143.84;68.98
6032;BME280;3044;43.232;27.972;2023-02-13T02:20:14;45220.44;;;-143.84;69.56
6032;BME280;3044;43.232;27.972;2023-02-13T02:23:13;45241.41;;;-143.84;69.43
6032;BME280;3044;43.232;27.972;2023-02-13T02:26:08;45231.88;;;-143.84;69.29
6032;BME280;3044;43.232;27.972;2023-02-13T02:29:10;45245.19;;;-143.84;69.48
6032;BME280;3044;43.232;27.972;2023-02-13T02:32:10;45218.53;;;-143.84;69.43
6032;BME280;3044;43.232;27.972;2023-02-13T02:34:48;45224.25;;;-143.84;69.69
6032;BME280;3044;43.232;27.972;2023-02-13T02:37:32;45220.44;;;-143.84;69.73
6032;BME280;3044;43.232;27.972;2023-02-13T02:40:10;45210.94;;;-143.84;69.54
6032;BME280;3044;43.232;27.972;2023-02-13T02:42:56;45243.31;;;-143.84;69.54
6032;BME280;3044;43.232;27.972;2023-02-13T02:45:31;45205.22;;;-143.84;69.71
6032;BME280;3044;43.232;27.972;2023-02-13T02:48:08;45220.44;;;-143.84;69.65
6032;BME280;3044;43.232;27.972;2023-02-13T02:51:02;45252.81;;;-143.84;69.86
6032;BME280;3044;43.232;27.972;2023-02-13T02:53:38;45250.91;;;-143.84;70.09
6032;BME280;3044;43.232;27.972;2023-02-13T02:56:10;45239.50;;;-143.84;69.72
6032;BME280;3044;43.232;27.972;2023-02-13T02:58:41;45233.78;;;-143.84;69.57
6032;BME280;3044;43.232;27.972;2023-02-13T03:01:28;45258.53;;;-143.84;69.52
6032;BME280;3044;43.232;27.972;2023-02-13T03:04:19;45247.09;;;-143.84;69.46
6032;BME280;3044;43.232;27.972;2023-02-13T03:07:06;45247.09;;;-143.84;69.37
6032;BME280;3044;43.232;27.972;2023-02-13T03:09:38;45239.50;;;-143.84;69.36
6032;BME280;3044;43.232;27.972;2023-02-13T03:12:26;45268.06;;;-143.84;68.80
6032;BME280;3044;43.232;27.972;2023-02-13T03:15:12;45231.88;;;-143.84;68.67
6032;BME280;3044;43.232;27.972;2023-02-13T03:17:39;45231.88;;;-143.84;68.64
6032;BME280;3044;43.232;27.972;2023-02-13T03:20:33;45224.25;;;-143.84;68.43
6032;BME280;3044;43.232;27.972;2023-02-13T03:23:32;45239.50;;;-143.84;68.44
6032;BME280;3044;43.232;27.972;2023-02-13T03:29:24;45269.97;;;-143.84;68.52
6032;BME280;3044;43.232;27.972;2023-02-13T03:32:17;45243.31;;;-143.84;68.61
6032;BME280;3044;43.232;27.972;2023-02-13T03:34:53;45233.78;;;-143.84;68.64
6032;BME280;3044;43.232;27.972;2023-02-13T03:37:43;45256.63;;;-143.84;68.49
6032;BME280;3044;43.232;27.972;2023-02-13T03:40:27;45235.69;;;-143.84;68.70
6032;BME280;3044;43.232;27.972;2023-02-13T03:43:02;45233.78;;;-143.84;68.49
6032;BME280;3044;43.232;27.972;2023-02-13T03:45:34;45260.44;;;-143.84;68.58
6032;BME280;3044;43.232;27.972;2023-02-13T03:48:25;45231.88;;;-143.84;68.26
6032;BME280;3044;43.232;27.972;2023-02-13T03:51:14;45237.59;;;-143.84;67.97
6032;BME280;3044;43.232;27.972;2023-02-13T03:53:45;45241.41;;;-143.84;67.87
6032;BME280;3044;43.232;27.972;2023-02-13T03:56:17;45254.72;;;-143.84;67.78
6032;BME280;3044;43.232;27.972;2023-02-13T03:59:02;45262.34;;;-143.84;67.93
6032;BME280;3044;43.232;27.972;2023-02-13T04:01:44;45243.31;;;-143.84;68.02
6032;BME280;3044;43.232;27.972;2023-02-13T04:04:18;45224.25;;;-143.84;68.25
6032;BME280;3044;43.232;27.972;2023-02-13T04:06:49;45281.38;;;-143.84;67.81
6032;BME280;3044;43.232;27.972;2023-02-13T04:09:20;45216.63;;;-143.84;68.19
6032;BME280;3044;43.232;27.972;2023-02-13T04:11:53;45212.84;;;-143.84;67.81
6032;BME280;3044;43.232;27.972;2023-02-13T04:14:24;45243.31;;;-143.84;68.03
6032;BME280;3044;43.232;27.972;2023-02-13T04:16:56;45245.19;;;-143.84;67.98
6032;BME280;3044;43.232;27.972;2023-02-13T04:19:25;45222.34;;;-143.84;68.09
6032;BME280;3044;43.232;27.972;2023-02-13T04:21:56;45226.16;;;-143.84;68.12
6032;BME280;3044;43.232;27.972;2023-02-13T04:24:25;45245.19;;;-143.84;67.74
6032;BME280;3044;43.232;27.972;2023-02-13T04:26:53;45239.50;;;-143.84;67.98
6032;BME280;3044;43.232;27.972;2023-02-13T04:29:22;45243.31;;;-143.84;68.01
6032;BME280;3044;43.232;27.972;2023-02-13T04:31:50;45249.00;;;-143.84;68.07
6032;BME280;3044;43.232;27.972;2023-02-13T04:34:17;45249.00;;;-143.84;68.16
6032;BME280;3044;43.232;27.972;2023-02-13T04:36:45;45224.25;;;-143.84;68.01
6032;BME280;3044;43.232;27.972;2023-02-13T04:39:12;45262.34;;;-143.84;68.31
6032;BME280;3044;43.232;27.972;2023-02-13T04:41:41;45285.19;;;-143.84;68.25
6032;BME280;3044;43.232;27.972;2023-02-13T04:44:08;45256.63;;;-143.84;68.30
6032;BME280;3044;43.232;27.972;2023-02-13T04:46:35;45243.31;;;-143.84;67.56
6032;BME280;3044;43.232;27.972;2023-02-13T04:49:02;45237.59;;;-143.84;67.63
6032;BME280;3044;43.232;27.972;2023-02-13T04:51:29;45218.53;;;-143.84;67.44
6032;BME280;3044;43.232;27.972;2023-02-13T04:53:56;45250.91;;;-143.84;67.19
6032;BME280;3044;43.232;27.972;2023-02-13T04:56:24;45235.69;;;-143.84;67.56
6032;BME280;3044;43.232;27.972;2023-02-13T04:58:53;45243.31;;;-143.84;67.35
6032;BME280;3044;43.232;27.972;2023-02-13T05:01:21;45224.25;;;-143.84;67.30
6032;BME280;3044;43.232;27.972;2023-02-13T05:03:48;45249.00;;;-143.84;67.33
6032;BME280;3044;43.232;27.972;2023-02-13T05:06:16;45233.78;;;-143.84;67.24
6032;BME280;3044;43.232;27.972;2023-02-13T05:08:43;45228.06;;;-143.84;67.10
6032;BME280;3044;43.232;27.972;2023-02-13T05:11:10;45233.78;;;-143.84;67.37
6032;BME280;3044;43.232;27.972;2023-02-13T05:13:37;45262.34;;;-143.84;67.21
6032;BME280;3044;43.232;27.972;2023-02-13T05:16:06;45252.81;;;-143.84;67.33
6032;BME280;3044;43.232;27.972;2023-02-13T05:18:33;45258.53;;;-143.84;67.09
6032;BME280;3044;43.232;27.972;2023-02-13T05:21:00;45233.78;;;-143.84;67.10
6032;BME280;3044;43.232;27.972;2023-02-13T05:23:45;45229.97;;;-143.84;66.75
6032;BME280;3044;43.232;27.972;2023-02-13T05:26:12;45254.72;;;-143.84;66.67
6032;BME280;3044;43.232;27.972;2023-02-13T05:28:39;45237.59;;;-143.84;66.49
6032;BME280;3044;43.232;27.972;2023-02-13T05:31:25;45249.00;;;-143.84;66.56
6032;BME280;3044;43.232;27.972;2023-02-13T05:33:52;45216.63;;;-143.84;66.19
6032;BME280;3044;43.232;27.972;2023-02-13T05:36:19;45231.88;;;-143.84;66.05
6032;BME280;3044;43.232;27.972;2023-02-13T05:38:46;45245.19;;;-143.84;65.68
6032;BME280;3044;43.232;27.972;2023-02-13T05:41:13;45229.97;;;-143.84;65.96
6032;BME280;3044;43.232;27.972;2023-02-13T05:43:41;45241.41;;;-143.84;65.88
6032;BME280;3044;43.232;27.972;2023-02-13T05:46:08;45243.31;;;-143.84;65.28
6032;BME280;3044;43.232;27.972;2023-02-13T05:48:37;45229.97;;;-143.84;65.39
6032;BME280;3044;43.232;27.972;2023-02-13T05:51:04;45249.00;;;-143.84;65.50
6032;BME280;3044;43.232;27.972;2023-02-13T05:53:31;45222.34;;;-143.84;65.72
6032;BME280;3044;43.232;27.972;2023-02-13T05:56:00;45231.88;;;-143.84;65.99
6032;BME280;3044;43.232;27.972;2023-02-13T05:58:28;45226.16;;;-143.84;66.13
6032;BME280;3044;43.232;27.972;2023-02-13T06:00:56;45231.88;;;-143.84;66.21
6032;BME280;3044;43.232;27.972;2023-02-13T06:03:24;45222.34;;;-143.84;66.40
6032;BME280;3044;43.232;27.972;2023-02-13T06:05:53;45231.88;;;-143.84;66.56
6032;BME280;3044;43.232;27.972;2023-02-13T06:08:20;45222.34;;;-143.84;66.28
6032;BME280;3044;43.232;27.972;2023-02-13T06:10:48;45231.88;;;-143.84;66.39
6032;BME280;3044;43.232;27.972;2023-02-13T06:13:15;45247.09;;;-143.84;66.16
6032;BME280;3044;43.232;27.972;2023-02-13T06:15:43;45214.72;;;-143.84;66.22
6032;BME280;3044;43.232;27.972;2023-02-13T06:18:10;45235.69;;;-143.84;66.30
6032;BME280;3044;43.232;27.972;2023-02-13T06:20:37;45220.44;;;-143.84;66.02
6032;BME280;3044;43.232;27.972;2023-02-13T06:23:06;45243.31;;;-143.84;65.59
6032;BME280;3044;43.232;27.972;2023-02-13T06:25:33;45216.63;;;-143.84;65.05
6032;BME280;3044;43.232;27.972;2023-02-13T06:28:01;45222.34;;;-143.84;65.22
6032;BME280;3044;43.232;27.972;2023-02-13T06:30:28;45214.72;;;-143.84;63.91
6032;BME280;3044;43.232;27.972;2023-02-13T06:32:55;45212.84;;;-143.84;62.97
6032;BME280;3044;43.232;27.972;2023-02-13T06:35:22;45239.50;;;-143.84;61.43
6032;BME280;3044;43.232;27.972;2023-02-13T06:37:50;45218.53;;;-143.84;61.01
6032;BME280;3044;43.232;27.972;2023-02-13T06:40:19;45212.84;;;-143.84;59.48
6032;BME280;3044;43.232;27.972;2023-02-13T06:42:46;45191.88;;;-143.84;58.05
6032;BME280;3044;43.232;27.972;2023-02-13T06:45:13;45220.44;;;-143.84;56.84
6032;BME280;3044;43.232;27.972;2023-02-13T06:47:41;45216.63;;;-143.84;55.73
6032;BME280;3044;43.232;27.972;2023-02-13T06:50:10;45197.59;;;-143.84;54.54
6032;BME280;3044;43.232;27.972;2023-02-13T06:52:38;45193.78;;;-143.84;52.20
6032;BME280;3044;43.232;27.972;2023-02-13T06:55:05;45214.72;;;-143.84;51.51
6032;BME280;3044;43.232;27.972;2023-02-13T06:57:34;45189.97;;;-143.84;50.77
6032;BME280;3044;43.232;27.972;2023-02-13T07:00:02;45203.31;;;-143.84;49.51
6032;BME280;3044;43.232;27.972;2023-02-13T07:02:30;45207.13;;;-143.84;47.90
6032;BME280;3044;43.232;27.972;2023-02-13T07:04:57;45146.19;;;-143.84;46.92
6032;BME280;3044;43.232;27.972;2023-02-13T07:07:25;45174.75;;;-143.84;46.75
6032;BME280;3044;43.232;27.972;2023-02-13T07:09:52;45167.13;;;-143.84;46.04
6032;BME280;3044;43.232;27.972;2023-02-13T07:12:19;45180.47;;;-143.84;45.39
6032;BME280;3044;43.232;27.972;2023-02-13T07:14:47;45207.13;;;-143.84;44.27
6032;BME280;3044;43.232;27.972;2023-02-13T07:17:15;45172.84;;;-143.84;43.41
6032;BME280;3044;43.232;27.972;2023-02-13T07:19:42;45169.03;;;-143.84;42.72
6032;BME280;3044;43.232;27.972;2023-02-13T07:22:09;45170.94;;;-143.84;42.21
6032;BME280;3044;43.232;27.972;2023-02-13T07:24:36;45140.47;;;-143.84;40.66
6032;BME280;3044;43.232;27.972;2023-02-13T07:27:04;45189.97;;;-143.84;40.38
6032;BME280;3044;43.232;27.972;2023-02-13T07:29:31;45167.13;;;-143.84;40.94
6032;BME280;3044;43.232;27.972;2023-02-13T07:31:59;45169.03;;;-143.84;39.54
6032;BME280;3044;43.232;27.972;2023-02-13T07:34:26;45174.75;;;-143.84;39.23
6032;BME280;3044;43.232;27.972;2023-02-13T07:36:54;45169.03;;;-143.84;38.58
6032;BME280;3044;43.232;27.972;2023-02-13T07:39:21;45144.28;;;-143.84;38.59
6032;BME280;3044;43.232;27.972;2023-02-13T07:41:48;45167.13;;;-143.84;39.42
6032;BME280;3044;43.232;27.972;2023-02-13T07:44:15;45176.66;;;-143.84;38.52
6032;BME280;3044;43.232;27.972;2023-02-13T07:46:42;45151.91;;;-143.84;38.27
6032;BME280;3044;43.232;27.972;2023-02-13T07:49:10;45180.47;;;-143.84;39.08
6032;BME280;3044;43.232;27.972;2023-02-13T07:51:38;45159.50;;;-143.84;38.95
6032;BME280;3044;43.232;27.972;2023-02-13T07:54:05;45167.13;;;-143.84;39.05
6032;BME280;3044;43.232;27.972;2023-02-13T07:56:32;45150.00;;;-143.84;38.61
6032;BME280;3044;43.232;27.972;2023-02-13T07:58:59;45153.81;;;-143.84;37.35
6032;BME280;3044;43.232;27.972;2023-02-13T08:01:26;45165.22;;;-143.84;37.72
6032;BME280;3044;43.232;27.972;2023-02-13T08:03:53;45148.09;;;-143.84;38.29
6032;BME280;3044;43.232;27.972;2023-02-13T08:06:22;45144.28;;;-143.84;37.53
6032;BME280;3044;43.232;27.972;2023-02-13T08:08:49;45127.13;;;-143.84;37.26
6032;BME280;3044;43.232;27.972;2023-02-13T08:11:37;45159.50;;;-143.84;36.78
6032;BME280;3044;43.232;27.972;2023-02-13T08:14:18;45153.81;;;-143.84;36.30
6032;BME280;3044;43.232;27.972;2023-02-13T08:16:45;45146.19;;;-143.84;36.53
6032;BME280;3044;43.232;27.972;2023-02-13T08:19:12;45155.69;;;-143.84;34.87
6032;BME280;3044;43.232;27.972;2023-02-13T08:21:41;45136.66;;;-143.84;33.29
6032;BME280;3044;43.232;27.972;2023-02-13T08:24:08;45130.94;;;-143.84;33.25
6032;BME280;3044;43.232;27.972;2023-02-13T08:26:35;45129.03;;;-143.84;33.10
6032;BME280;3044;43.232;27.972;2023-02-13T08:29:03;45125.22;;;-143.84;32.93
6032;BME280;3044;43.232;27.972;2023-02-13T08:31:30;45146.19;;;-143.84;32.57
6032;BME280;3044;43.232;27.972;2023-02-13T08:33:57;45148.09;;;-143.84;32.40
6032;BME280;3044;43.232;27.972;2023-02-13T08:36:24;45129.03;;;-143.84;31.76
6032;BME280;3044;43.232;27.972;2023-02-13T08:38:53;45150.00;;;-143.84;31.62
6032;BME280;3044;43.232;27.972;2023-02-13T08:41:20;45163.31;;;-143.84;33.15
6032;BME280;3044;43.232;27.972;2023-02-13T08:43:48;45132.84;;;-143.84;33.57
6032;BME280;3044;43.232;27.972;2023-02-13T08:46:16;45134.75;;;-143.84;33.64
6032;BME280;3044;43.232;27.972;2023-02-13T08:48:43;45123.34;;;-143.84;32.77
6032;BME280;3044;43.232;27.972;2023-02-13T08:51:11;45136.66;;;-143.84;32.80
6032;BME280;3044;43.232;27.972;2023-02-13T08:53:39;45150.00;;;-143.84;33.31
6032;BME280;3044;43.232;27.972;2023-02-13T08:56:08;45136.66;;;-143.84;33.59
6032;BME280;3044;43.232;27.972;2023-02-13T08:58:36;45130.94;;;-143.84;33.12
6032;BME280;3044;43.232;27.972;2023-02-13T09:01:06;45153.81;;;-143.84;33.29
6032;BME280;3044;43.232;27.972;2023-02-13T09:03:34;45146.19;;;-143.84;33.44
6032;BME280;3044;43.232;27.972;2023-02-13T09:06:02;45148.09;;;-143.84;33.85
6032;BME280;3044;43.232;27.972;2023-02-13T09:08:29;45148.09;;;-143.84;34.46
6032;BME280;3044;43.232;27.972;2023-02-13T09:10:58;45130.94;;;-143.84;34.39
6032;BME280;3044;43.232;27.972;2023-02-13T09:13:28;45136.66;;;-143.84;33.36
6032;BME280;3044;43.232;27.972;2023-02-13T09:15:57;45129.03;;;-143.84;34.45
6032;BME280;3044;43.232;27.972;2023-02-13T09:18:25;45150.00;;;-143.84;36.57
6032;BME280;3044;43.232;27.972;2023-02-13T09:20:57;45140.47;;;-143.84;36.90
6032;BME280;3044;43.232;27.972;2023-02-13T09:23:25;45144.28;;;-143.84;36.99
6032;BME280;3044;43.232;27.972;2023-02-13T09:25:53;45144.28;;;-143.84;37.07
6032;BME280;3044;43.232;27.972;2023-02-13T09:28:20;45155.69;;;-143.84;37.18
6032;BME280;3044;43.232;27.972;2023-02-13T09:30:49;45121.44;;;-143.84;37.16
6032;BME280;3044;43.232;27.972;2023-02-13T09:33:16;45138.56;;;-143.84;37.46
6032;BME280;3044;43.232;27.972;2023-02-13T09:35:43;45132.84;;;-143.84;37.99
6032;BME280;3044;43.232;27.972;2023-02-13T09:38:10;45140.47;;;-143.84;38.18
6032;BME280;3044;43.232;27.972;2023-02-13T09:40:43;45121.44;;;-143.84;38.27
6032;BME280;3044;43.232;27.972;2023-02-13T09:43:15;45130.94;;;-143.84;37.63
6032;BME280;3044;43.232;27.972;2023-02-13T09:45:45;45129.03;;;-143.84;37.25
6032;BME280;3044;43.232;27.972;2023-02-13T09:48:29;45146.19;;;-143.84;37.47
6032;BME280;3044;43.232;27.972;2023-02-13T09:50:58;45140.47;;;-143.84;37.85
6032;BME280;3044;43.232;27.972;2023-02-13T09:53:27;45140.47;;;-143.84;38.01
6032;BME280;3044;43.232;27.972;2023-02-13T09:56:05;45140.47;;;-143.84;38.04
6032;BME280;3044;43.232;27.972;2023-02-13T09:58:42;45123.34;;;-143.84;37.87
6032;BME280;3044;43.232;27.972;2023-02-13T10:01:18;45140.47;;;-143.84;38.41
6032;BME280;3044;43.232;27.972;2023-02-13T10:03:54;45125.22;;;-143.84;38.67
6032;BME280;3044;43.232;27.972;2023-02-13T10:06:30;45127.13;;;-143.84;38.90
6032;BME280;3044;43.232;27.972;2023-02-13T10:09:05;45115.72;;;-143.84;39.03
6032;BME280;3044;43.232;27.972;2023-02-13T10:11:59;45140.47;;;-143.84;38.24
6032;BME280;3044;43.232;27.972;2023-02-13T10:14:31;45184.25;;;-143.84;38.73
6032;BME280;3044;43.232;27.972;2023-02-13T10:17:05;45140.47;;;-143.84;38.58
6032;BME280;3044;43.232;27.972;2023-02-13T10:19:40;45130.94;;;-143.84;39.18
6032;BME280;3044;43.232;27.972;2023-02-13T10:22:11;45161.41;;;-143.84;38.89
6032;BME280;3044;43.232;27.972;2023-02-13T10:24:44;45150.00;;;-143.84;38.18
6032;BME280;3044;43.232;27.972;2023-02-13T10:27:19;45157.59;;;-143.84;37.39
6032;BME280;3044;43.232;27.972;2023-02-13T10:29:52;45138.56;;;-143.84;37.39
6032;BME280;3044;43.232;27.972;2023-02-13T10:32:41;45127.13;;;-143.84;37.76
6032;BME280;3044;43.232;27.972;2023-02-13T10:35:19;45125.22;;;-143.84;36.39
6032;BME280;3044;43.232;27.972;2023-02-13T10:37:50;45134.75;;;-143.84;36.81
6032;BME280;3044;43.232;27.972;2023-02-13T10:40:19;45146.19;;;-143.84;36.85
6032;BME280;3044;43.232;27.972;2023-02-13T10:42:55;45130.94;;;-143.84;36.23
6032;BME280;3044;43.232;27.972;2023-02-13T10:45:47;45130.94;;;-143.84;36.47
6032;BME280;3044;43.232;27.972;2023-02-13T10:48:28;45140.47;;;-143.84;36.34
6032;BME280;3044;43.232;27.972;2023-02-13T10:51:03;45146.19;;;-143.84;36.12
6032;BME280;3044;43.232;27.972;2023-02-13T10:53:42;45110.00;;;-143.84;36.53
6032;BME280;3044;43.232;27.972;2023-02-13T10:56:19;45129.03;;;-143.84;36.01
6032;BME280;3044;43.232;27.972;2023-02-13T10:59:00;45125.22;;;-143.84;36.58
6032;BME280;3044;43.232;27.972;2023-02-13T11:01:34;45096.66;;;-143.84;36.21
6032;BME280;3044;43.232;27.972;2023-02-13T11:04:07;45132.84;;;-143.84;35.76
6032;BME280;3044;43.232;27.972;2023-02-13T11:06:41;45125.22;;;-143.84;35.74
6032;BME280;3044;43.232;27.972;2023-02-13T11:09:09;45100.47;;;-143.84;35.22
6032;BME280;3044;43.232;27.972;2023-02-13T11:11:40;45151.91;;;-143.84;35.15
6032;BME280;3044;43.232;27.972;2023-02-13T11:14:13;45117.63;;;-143.84;35.65
6032;BME280;3044;43.232;27.972;2023-02-13T11:16:48;45102.38;;;-143.84;35.57
6032;BME280;3044;43.232;27.972;2023-02-13T11:19:21;45113.81;;;-143.84;33.95
6032;BME280;3044;43.232;27.972;2023-02-13T11:21:56;45115.72;;;-143.84;33.43
6032;BME280;3044;43.232;27.972;2023-02-13T11:24:26;45127.13;;;-143.84;34.04
6032;BME280;3044;43.232;27.972;2023-02-13T11:26:58;45123.34;;;-143.84;34.46
6032;BME280;3044;43.232;27.972;2023-02-13T11:29:27;45121.44;;;-143.84;34.66
6032;BME280;3044;43.232;27.972;2023-02-13T11:32:19;45159.50;;;-143.84;35.11
6032;BME280;3044;43.232;27.972;2023-02-13T11:34:48;45125.22;;;-143.84;35.28
6032;BME280;3044;43.232;27.972;2023-02-13T11:37:21;45117.63;;;-143.84;35.85
6032;BME280;3044;43.232;27.972;2023-02-13T11:39:50;45129.03;;;-143.84;36.13
6032;BME280;3044;43.232;27.972;2023-02-13T11:42:23;45111.91;;;-143.84;36.85
6032;BME280;3044;43.232;27.972;2023-02-13T11:44:54;45136.66;;;-143.84;37.26
6032;BME280;3044;43.232;27.972;2023-02-13T11:47:32;45148.09;;;-143.84;37.10
6032;BME280;3044;43.232;27.972;2023-02-13T11:50:00;45155.69;;;-143.84;37.47
6032;BME280;3044;43.232;27.972;2023-02-13T11:52:30;45111.91;;;-143.84;37.79
6032;BME280;3044;43.232;27.972;2023-02-13T11:54:59;45140.47;;;-143.84;39.04
6032;BME280;3044;43.232;27.972;2023-02-13T11:57:29;45142.38;;;-143.84;38.74
6032;BME280;3044;43.232;27.972;2023-02-13T11:59:58;45136.66;;;-143.84;39.45
6032;BME280;3044;43.232;27.972;2023-02-13T12:02:27;45163.31;;;-143.84;39.51
6032;BME280;3044;43.232;27.972;2023-02-13T12:05:14;45155.69;;;-143.84;39.54
6032;BME280;3044;43.232;27.972;2023-02-13T12:07:44;45150.00;;;-143.84;39.73
6032;BME280;3044;43.232;27.972;2023-02-13T12:10:18;45155.69;;;-143.84;40.34
6032;BME280;3044;43.232;27.972;2023-02-13T12:12:53;45140.47;;;-143.84;39.48
6032;BME280;3044;43.232;27.972;2023-02-13T12:15:22;45146.19;;;-143.84;39.20
6032;BME280;3044;43.232;27.972;2023-02-13T12:17:58;45138.56;;;-143.84;38.52
6032;BME280;3044;43.232;27.972;2023-02-13T12:20:36;45180.47;;;-143.84;37.70
6032;BME280;3044;43.232;27.972;2023-02-13T12:23:15;45151.91;;;-143.84;39.66
6032;BME280;3044;43.232;27.972;2023-02-13T12:25:58;45157.59;;;-143.84;39.70
6032;BME280;3044;43.232;27.972;2023-02-13T12:28:44;45157.59;;;-143.84;39.26
6032;BME280;3044;43.232;27.972;2023-02-13T12:31:41;45170.94;;;-143.84;41.71
6032;BME280;3044;43.232;27.972;2023-02-13T12:34:24;45159.50;;;-143.84;41.71
6032;BME280;3044;43.232;27.972;2023-02-13T12:37:08;45174.75;;;-143.84;41.29
6032;BME280;3044;43.232;27.972;2023-02-13T12:39:49;45178.56;;;-143.84;41.40
6032;BME280;3044;43.232;27.972;2023-02-13T12:42:34;45169.03;;;-143.84;40.89
6032;BME280;3044;43.232;27.972;2023-02-13T12:45:27;45144.28;;;-143.84;41.13
6032;BME280;3044;43.232;27.972;2023-02-13T12:48:20;45180.47;;;-143.84;41.23
6032;BME280;3044;43.232;27.972;2023-02-13T12:50:56;45178.56;;;-143.84;40.29
6032;BME280;3044;43.232;27.972;2023-02-13T12:53:43;45174.75;;;-143.84;39.40
6032;BME280;3044;43.232;27.972;2023-02-13T12:56:41;45176.66;;;-143.84;41.03
6032;BME280;3044;43.232;27.972;2023-02-13T12:59:19;45163.31;;;-143.84;40.23
6032;BME280;3044;43.232;27.972;2023-02-13T13:02:13;45167.13;;;-143.84;41.01
6032;BME280;3044;43.232;27.972;2023-02-13T13:05:01;45186.16;;;-143.84;40.66
6032;BME280;3044;43.232;27.972;2023-02-13T13:07:51;45159.50;;;-143.84;40.42
6032;BME280;3044;43.232;27.972;2023-02-13T13:10:37;45151.91;;;-143.84;40.25
6032;BME280;3044;43.232;27.972;2023-02-13T13:13:20;45159.50;;;-143.84;39.26
6032;BME280;3044;43.232;27.972;2023-02-13T13:15:58;45165.22;;;-143.84;39.73
6032;BME280;3044;43.232;27.972;2023-02-13T13:18:40;45170.94;;;-143.84;39.86
6032;BME280;3044;43.232;27.972;2023-02-13T13:21:17;45174.75;;;-143.84;39.80